sensor_id;sensor_type;location;lat;lon;timestamp;pressure;altitude;pressure_sealevel;temperature;humidity
72570;BME280;60594;50.204;8.844;2023-08-12T00:01:43;100172.44;;;21.11;87.38
72570;BME280;60594;50.204;8.844;2023-08-12T00:04:09;100172.44;;;21.11;87.86
72570;BME280;60594;50.204;8.844;2023-08-12T00:06:36;100164.03;;;21.06;87.86
72570;BME280;60594;50.204;8.844;2023-08-12T00:09:02;100166.94;;;21.05;87.90
72570;BME280;60594;50.204;8.844;2023-08-12T00:11:30;100169.66;;;21.05;87.75
72570;BME280;60594;50.204;8.844;2023-08-12T00:13:57;100154.16;;;20.99;87.86
72570;BME280;60594;50.204;8.844;2023-08-12T00:16:24;100155.00;;;20.99;87.77
72570;BME280;60594;50.204;8.844;2023-08-12T00:18:51;100150.97;;;20.95;87.69
72570;BME280;60594;50.204;8.844;2023-08-12T00:21:18;100149.47;;;20.93;87.96
72570;BME280;60594;50.204;8.844;2023-08-12T00:23:44;100137.13;;;20.90;88.07
72570;BME280;60594;50.204;8.844;2023-08-12T00:26:11;100139.66;;;20.92;88.25
72570;BME280;60594;50.204;8.844;2023-08-12T00:28:38;100133.78;;;20.88;88.67
72570;BME280;60594;50.204;8.844;2023-08-12T00:31:05;100132.09;;;20.87;88.48
72570;BME280;60594;50.204;8.844;2023-08-12T00:33:33;100134.78;;;20.87;88.51
72570;BME280;60594;50.204;8.844;2023-08-12T00:36:00;100137.50;;;20.87;88.09
72570;BME280;60594;50.204;8.844;2023-08-12T00:38:28;100127.25;;;20.83;86.80
72570;BME280;60594;50.204;8.844;2023-08-12T00:40:55;100123.88;;;20.81;87.46
72570;BME280;60594;50.204;8.844;2023-08-12T00:43:23;100126.03;;;20.85;87.77
72570;BME280;60594;50.204;8.844;2023-08-12T00:45:49;100124.81;;;20.88;86.88
72570;BME280;60594;50.204;8.844;2023-08-12T00:48:17;100129.19;;;20.89;87.75
72570;BME280;60594;50.204;8.844;2023-08-12T00:50:44;100120.63;;;20.85;87.73
72570;BME280;60594;50.204;8.844;2023-08-12T00:53:14;100119.00;;;20.91;87.21
72570;BME280;60594;50.204;8.844;2023-08-12T00:55:42;100107.31;;;20.90;86.93
72570;BME280;60594;50.204;8.844;2023-08-12T00:58:10;100105.13;;;20.94;86.86
72570;BME280;60594;50.204;8.844;2023-08-12T01:00:38;100098.66;;;20.95;86.61
72570;BME280;60594;50.204;8.844;2023-08-12T01:03:05;100097.81;;;20.94;87.40
72570;BME280;60594;50.204;8.844;2023-08-12T01:05:34;100106.59;;;20.96;86.77
72570;BME280;60594;50.204;8.844;2023-08-12T01:08:01;100094.91;;;20.96;86.39
72570;BME280;60594;50.204;8.844;2023-08-12T01:10:34;100087.72;;;20.88;86.70
72570;BME280;60594;50.204;8.844;2023-08-12T01:13:28;100091.91;;;20.91;86.08
72570;BME280;60594;50.204;8.844;2023-08-12T01:15:58;100089.88;;;20.93;86.34
72570;BME280;60594;50.204;8.844;2023-08-12T01:18:27;100083.44;;;20.94;86.79
72570;BME280;60594;50.204;8.844;2023-08-12T01:20:54;100087.81;;;20.95;86.94
72570;BME280;60594;50.204;8.844;2023-08-12T01:23:21;100072.78;;;20.92;87.17
72570;BME280;60594;50.204;8.844;2023-08-12T01:25:48;100084.06;;;20.96;87.44
72570;BME280;60594;50.204;8.844;2023-08-12T01:28:15;100075.09;;;20.95;86.72
72570;BME280;60594;50.204;8.844;2023-08-12T01:31:32;100076.78;;;20.96;87.21
72570;BME280;60594;50.204;8.844;2023-08-12T01:33:59;100071.25;;;20.90;87.32
72570;BME280;60594;50.204;8.844;2023-08-12T01:36:29;100071.56;;;20.95;87.25
72570;BME280;60594;50.204;8.844;2023-08-12T01:38:59;100058.34;;;20.92;87.23
72570;BME280;60594;50.204;8.844;2023-08-12T01:41:26;100052.78;;;20.93;87.84
72570;BME280;60594;50.204;8.844;2023-08-12T01:43:54;100057.50;;;20.91;86.81
72570;BME280;60594;50.204;8.844;2023-08-12T01:46:21;100056.41;;;20.86;86.79
72570;BME280;60594;50.204;8.844;2023-08-12T01:48:48;100059.97;;;20.86;86.40
72570;BME280;60594;50.204;8.844;2023-08-12T01:51:15;100059.13;;;20.86;87.69
72570;BME280;60594;50.204;8.844;2023-08-12T01:53:42;100054.53;;;20.86;87.83
72570;BME280;60594;50.204;8.844;2023-08-12T01:56:09;100058.19;;;20.79;87.08
72570;BME280;60594;50.204;8.844;2023-08-12T01:58:36;100054.19;;;20.75;87.38
72570;BME280;60594;50.204;8.844;2023-08-12T02:01:03;100060.16;;;20.85;87.30
72570;BME280;60594;50.204;8.844;2023-08-12T02:03:30;100059.13;;;20.86;86.97
72570;BME280;60594;50.204;8.844;2023-08-12T02:05:57;100059.59;;;20.89;87.53
72570;BME280;60594;50.204;8.844;2023-08-12T02:08:23;100058.53;;;20.90;86.44
72570;BME280;60594;50.204;8.844;2023-08-12T02:10:50;100056.69;;;20.91;87.03
72570;BME280;60594;50.204;8.844;2023-08-12T02:13:18;100063.97;;;20.90;86.66
72570;BME280;60594;50.204;8.844;2023-08-12T02:15:45;100065.31;;;20.80;86.35
72570;BME280;60594;50.204;8.844;2023-08-12T02:18:12;100072.22;;;20.82;87.21
72570;BME280;60594;50.204;8.844;2023-08-12T02:20:40;100069.50;;;20.82;87.74
72570;BME280;60594;50.204;8.844;2023-08-12T02:23:07;100072.34;;;20.74;88.26
72570;BME280;60594;50.204;8.844;2023-08-12T02:25:34;100072.66;;;20.50;90.02
72570;BME280;60594;50.204;8.844;2023-08-12T02:28:01;100058.31;;;20.50;90.20
72570;BME280;60594;50.204;8.844;2023-08-12T02:30:29;100060.16;;;20.49;88.79
72570;BME280;60594;50.204;8.844;2023-08-12T02:32:56;100056.16;;;20.45;88.29
72570;BME280;60594;50.204;8.844;2023-08-12T02:35:24;100062.41;;;20.46;88.50
72570;BME280;60594;50.204;8.844;2023-08-12T02:37:51;100068.03;;;20.44;88.05
72570;BME280;60594;50.204;8.844;2023-08-12T02:40:18;100069.50;;;20.47;87.43
72570;BME280;60594;50.204;8.844;2023-08-12T02:42:44;100069.13;;;20.50;87.18
72570;BME280;60594;50.204;8.844;2023-08-12T02:45:14;100071.25;;;20.54;88.79
72570;BME280;60594;50.204;8.844;2023-08-12T02:47:41;100072.47;;;20.52;90.33
72570;BME280;60594;50.204;8.844;2023-08-12T02:50:08;100079.38;;;20.54;90.44
72570;BME280;60594;50.204;8.844;2023-08-12T02:52:37;100082.75;;;20.56;91.44
72570;BME280;60594;50.204;8.844;2023-08-12T02:55:04;100088.72;;;20.52;91.69
72570;BME280;60594;50.204;8.844;2023-08-12T02:57:31;100096.03;;;20.51;92.16
72570;BME280;60594;50.204;8.844;2023-08-12T02:59:57;100094.78;;;20.39;91.16
72570;BME280;60594;50.204;8.844;2023-08-12T03:02:24;100114.34;;;20.35;92.57
72570;BME280;60594;50.204;8.844;2023-08-12T03:04:52;100127.56;;;20.30;93.66
72570;BME280;60594;50.204;8.844;2023-08-12T03:07:20;100133.34;;;20.27;93.55
72570;BME280;60594;50.204;8.844;2023-08-12T03:09:47;100127.22;;;20.18;95.60
72570;BME280;60594;50.204;8.844;2023-08-12T03:12:14;100125.50;;;20.17;95.18
72570;BME280;60594;50.204;8.844;2023-08-12T03:14:41;100130.09;;;20.17;97.65
72570;BME280;60594;50.204;8.844;2023-08-12T03:17:09;100120.09;;;20.17;98.88
72570;BME280;60594;50.204;8.844;2023-08-12T03:19:38;100120.28;;;20.16;99.34
72570;BME280;60594;50.204;8.844;2023-08-12T03:22:05;100114.88;;;20.16;99.71
72570;BME280;60594;50.204;8.844;2023-08-12T03:24:33;100117.81;;;20.06;100.00
72570;BME280;60594;50.204;8.844;2023-08-12T03:26:59;100114.16;;;19.99;100.00
72570;BME280;60594;50.204;8.844;2023-08-12T03:29:26;100107.19;;;19.90;100.00
72570;BME280;60594;50.204;8.844;2023-08-12T03:31:54;100107.34;;;19.74;100.00
72570;BME280;60594;50.204;8.844;2023-08-12T03:34:25;100088.53;;;19.58;100.00
72570;BME280;60594;50.204;8.844;2023-08-12T03:36:54;100097.94;;;19.47;100.00
72570;BME280;60594;50.204;8.844;2023-08-12T03:39:21;100107.97;;;19.39;100.00
72570;BME280;60594;50.204;8.844;2023-08-12T03:41:47;100124.28;;;19.31;100.00
72570;BME280;60594;50.204;8.844;2023-08-12T03:44:17;100123.97;;;18.95;100.00
72570;BME280;60594;50.204;8.844;2023-08-12T03:46:43;100128.28;;;18.74;100.00
72570;BME280;60594;50.204;8.844;2023-08-12T03:49:12;100137.88;;;18.84;100.00
72570;BME280;60594;50.204;8.844;2023-08-12T03:51:39;100139.69;;;18.92;100.00
72570;BME280;60594;50.204;8.844;2023-08-12T03:54:07;100134.44;;;18.90;100.00
72570;BME280;60594;50.204;8.844;2023-08-12T03:56:33;100140.06;;;18.89;100.00
72570;BME280;60594;50.204;8.844;2023-08-12T03:59:03;100143.09;;;18.86;100.00
72570;BME280;60594;50.204;8.844;2023-08-12T04:01:30;100150.72;;;18.82;100.00
72570;BME280;60594;50.204;8.844;2023-08-12T04:03:57;100150.09;;;18.72;100.00
72570;BME280;60594;50.204;8.844;2023-08-12T04:06:24;100128.81;;;18.77;100.00
72570;BME280;60594;50.204;8.844;2023-08-12T04:08:51;100119.84;;;18.77;100.00
72570;BME280;60594;50.204;8.844;2023-08-12T04:11:17;100103.81;;;18.75;100.00
72570;BME280;60594;50.204;8.844;2023-08-12T04:13:44;100092.94;;;18.61;100.00
72570;BME280;60594;50.204;8.844;2023-08-12T04:16:12;100100.38;;;18.59;100.00
72570;BME280;60594;50.204;8.844;2023-08-12T04:18:40;100083.28;;;18.66;100.00
72570;BME280;60594;50.204;8.844;2023-08-12T04:21:06;100076.22;;;18.65;100.00
72570;BME280;60594;50.204;8.844;2023-08-12T04:23:33;100098.28;;;18.69;100.00
72570;BME280;60594;50.204;8.844;2023-08-12T04:26:00;100096.13;;;18.64;100.00
72570;BME280;60594;50.204;8.844;2023-08-12T04:28:29;100113.16;;;18.65;100.00
72570;BME280;60594;50.204;8.844;2023-08-12T04:30:55;100122.78;;;18.67;100.00
72570;BME280;60594;50.204;8.844;2023-08-12T04:33:23;100115.31;;;18.77;100.00
72570;BME280;60594;50.204;8.844;2023-08-12T04:35:52;100084.78;;;18.69;100.00
72570;BME280;60594;50.204;8.844;2023-08-12T04:38:19;100057.22;;;18.51;100.00
72570;BME280;60594;50.204;8.844;2023-08-12T04:40:49;100038.91;;;18.38;100.00
72570;BME280;60594;50.204;8.844;2023-08-12T04:43:18;100029.31;;;18.36;100.00
72570;BME280;60594;50.204;8.844;2023-08-12T04:45:45;100054.75;;;18.33;100.00
72570;BME280;60594;50.204;8.844;2023-08-12T04:48:14;100060.03;;;18.27;100.00
72570;BME280;60594;50.204;8.844;2023-08-12T04:50:42;100058.47;;;18.32;100.00
72570;BME280;60594;50.204;8.844;2023-08-12T04:53:09;100059.00;;;18.28;100.00
72570;BME280;60594;50.204;8.844;2023-08-12T04:55:36;100083.28;;;18.36;100.00
72570;BME280;60594;50.204;8.844;2023-08-12T04:58:03;100081.59;;;18.35;100.00
72570;BME280;60594;50.204;8.844;2023-08-12T05:00:30;100082.25;;;18.37;100.00
72570;BME280;60594;50.204;8.844;2023-08-12T05:02:58;100074.31;;;18.35;100.00
72570;BME280;60594;50.204;8.844;2023-08-12T05:05:26;100054.91;;;18.40;100.00
72570;BME280;60594;50.204;8.844;2023-08-12T05:07:53;100039.88;;;18.45;100.00
72570;BME280;60594;50.204;8.844;2023-08-12T05:10:20;100037.63;;;18.57;100.00
72570;BME280;60594;50.204;8.844;2023-08-12T05:12:47;100040.63;;;18.62;100.00
72570;BME280;60594;50.204;8.844;2023-08-12T05:15:16;100029.34;;;18.58;100.00
72570;BME280;60594;50.204;8.844;2023-08-12T05:17:45;100032.75;;;18.52;100.00
72570;BME280;60594;50.204;8.844;2023-08-12T05:20:14;100033.66;;;18.45;100.00
72570;BME280;60594;50.204;8.844;2023-08-12T05:22:42;100030.06;;;18.52;100.00
72570;BME280;60594;50.204;8.844;2023-08-12T05:25:08;100032.06;;;18.58;100.00
72570;BME280;60594;50.204;8.844;2023-08-12T05:27:35;100043.31;;;18.62;100.00
72570;BME280;60594;50.204;8.844;2023-08-12T05:30:02;100056.41;;;18.42;100.00
72570;BME280;60594;50.204;8.844;2023-08-12T05:32:32;100052.22;;;18.40;100.00
72570;BME280;60594;50.204;8.844;2023-08-12T05:34:59;100053.81;;;18.57;100.00
72570;BME280;60594;50.204;8.844;2023-08-12T05:37:26;100053.06;;;18.71;100.00
72570;BME280;60594;50.204;8.844;2023-08-12T05:39:52;100045.09;;;18.77;100.00
72570;BME280;60594;50.204;8.844;2023-08-12T05:42:19;100044.06;;;18.78;100.00
72570;BME280;60594;50.204;8.844;2023-08-12T05:44:45;100048.59;;;18.86;100.00
72570;BME280;60594;50.204;8.844;2023-08-12T05:47:12;100051.09;;;18.87;100.00
72570;BME280;60594;50.204;8.844;2023-08-12T05:49:39;100038.25;;;18.89;100.00
72570;BME280;60594;50.204;8.844;2023-08-12T05:52:06;100041.78;;;18.90;100.00
72570;BME280;60594;50.204;8.844;2023-08-12T05:54:33;100046.16;;;18.91;100.00
72570;BME280;60594;50.204;8.844;2023-08-12T05:57:01;100035.25;;;18.84;100.00
72570;BME280;60594;50.204;8.844;2023-08-12T05:59:28;100038.78;;;18.85;100.00
72570;BME280;60594;50.204;8.844;2023-08-12T06:01:54;100040.84;;;18.83;100.00
72570;BME280;60594;50.204;8.844;2023-08-12T06:04:21;100045.22;;;18.84;100.00
72570;BME280;60594;50.204;8.844;2023-08-12T06:06:48;100045.22;;;18.84;100.00
72570;BME280;60594;50.204;8.844;2023-08-12T06:09:14;100047.97;;;18.76;100.00
72570;BME280;60594;50.204;8.844;2023-08-12T06:11:42;100045.56;;;18.81;100.00
72570;BME280;60594;50.204;8.844;2023-08-12T06:14:08;100054.34;;;18.83;100.00
72570;BME280;60594;50.204;8.844;2023-08-12T06:16:35;100063.28;;;18.83;100.00
72570;BME280;60594;50.204;8.844;2023-08-12T06:19:02;100060.03;;;18.88;100.00
72570;BME280;60594;50.204;8.844;2023-08-12T06:21:28;100065.25;;;18.89;100.00
72570;BME280;60594;50.204;8.844;2023-08-12T06:23:55;100064.03;;;18.92;100.00
72570;BME280;60594;50.204;8.844;2023-08-12T06:26:23;100069.78;;;18.97;100.00
72570;BME280;60594;50.204;8.844;2023-08-12T06:28:50;100060.28;;;19.01;100.00
72570;BME280;60594;50.204;8.844;2023-08-12T06:31:17;100067.00;;;19.05;100.00
72570;BME280;60594;50.204;8.844;2023-08-12T06:33:44;100076.72;;;19.14;100.00
72570;BME280;60594;50.204;8.844;2023-08-12T06:36:14;100068.63;;;19.14;100.00
72570;BME280;60594;50.204;8.844;2023-08-12T06:38:41;100068.44;;;19.15;100.00
72570;BME280;60594;50.204;8.844;2023-08-12T06:41:07;100072.53;;;19.11;100.00
72570;BME280;60594;50.204;8.844;2023-08-12T06:43:35;100070.97;;;19.17;100.00
72570;BME280;60594;50.204;8.844;2023-08-12T06:46:02;100055.03;;;19.22;100.00
72570;BME280;60594;50.204;8.844;2023-08-12T06:48:29;100069.56;;;19.21;100.00
72570;BME280;60594;50.204;8.844;2023-08-12T06:50:56;100063.09;;;19.07;100.00
72570;BME280;60594;50.204;8.844;2023-08-12T06:53:25;100071.63;;;19.19;100.00
72570;BME280;60594;50.204;8.844;2023-08-12T06:55:52;100071.63;;;19.19;100.00
72570;BME280;60594;50.204;8.844;2023-08-12T06:58:19;100065.75;;;19.38;100.00
72570;BME280;60594;50.204;8.844;2023-08-12T07:00:46;100068.38;;;19.46;100.00
72570;BME280;60594;50.204;8.844;2023-08-12T07:03:13;100068.47;;;19.38;100.00
72570;BME280;60594;50.204;8.844;2023-08-12T07:05:39;100065.97;;;19.51;100.00
72570;BME280;60594;50.204;8.844;2023-08-12T07:08:06;100061.00;;;19.40;100.00
72570;BME280;60594;50.204;8.844;2023-08-12T07:10:33;100066.28;;;19.56;100.00
72570;BME280;60594;50.204;8.844;2023-08-12T07:13:03;100071.69;;;19.70;100.00
72570;BME280;60594;50.204;8.844;2023-08-12T07:15:30;100080.22;;;19.82;100.00
72570;BME280;60594;50.204;8.844;2023-08-12T07:17:56;100077.22;;;19.91;100.00
72570;BME280;60594;50.204;8.844;2023-08-12T07:20:24;100074.25;;;20.01;100.00
72570;BME280;60594;50.204;8.844;2023-08-12T07:22:51;100076.41;;;20.06;100.00
72570;BME280;60594;50.204;8.844;2023-08-12T07:25:45;100088.84;;;20.15;100.00
72570;BME280;60594;50.204;8.844;2023-08-12T07:28:12;100077.16;;;20.14;100.00
72570;BME280;60594;50.204;8.844;2023-08-12T07:30:40;100073.72;;;20.20;100.00
72570;BME280;60594;50.204;8.844;2023-08-12T07:33:06;100080.34;;;20.32;100.00
72570;BME280;60594;50.204;8.844;2023-08-12T07:35:34;100092.09;;;20.39;100.00
72570;BME280;60594;50.204;8.844;2023-08-12T07:38:00;100084.81;;;20.40;100.00
72570;BME280;60594;50.204;8.844;2023-08-12T07:40:27;100084.97;;;20.53;100.00
72570;BME280;60594;50.204;8.844;2023-08-12T07:42:54;100086.56;;;20.62;100.00
72570;BME280;60594;50.204;8.844;2023-08-12T07:45:22;100084.59;;;20.70;100.00
72570;BME280;60594;50.204;8.844;2023-08-12T07:47:49;100083.50;;;20.86;100.00
72570;BME280;60594;50.204;8.844;2023-08-12T07:50:17;100078.56;;;20.89;100.00
72570;BME280;60594;50.204;8.844;2023-08-12T07:52:44;100073.75;;;20.91;100.00
72570;BME280;60594;50.204;8.844;2023-08-12T07:55:12;100086.03;;;21.02;100.00
72570;BME280;60594;50.204;8.844;2023-08-12T07:57:38;100092.53;;;21.07;100.00
72570;BME280;60594;50.204;8.844;2023-08-12T08:00:05;100090.75;;;21.14;100.00
72570;BME280;60594;50.204;8.844;2023-08-12T08:02:35;100094.47;;;21.13;100.00
72570;BME280;60594;50.204;8.844;2023-08-12T08:05:02;100086.22;;;21.21;100.00
72570;BME280;60594;50.204;8.844;2023-08-12T08:07:32;100092.03;;;21.18;100.00
72570;BME280;60594;50.204;8.844;2023-08-12T08:09:59;100099.38;;;21.24;100.00
72570;BME280;60594;50.204;8.844;2023-08-12T08:12:26;100096.03;;;21.22;100.00
72570;BME280;60594;50.204;8.844;2023-08-12T08:14:54;100083.63;;;21.34;100.00
72570;BME280;60594;50.204;8.844;2023-08-12T08:17:21;100098.03;;;21.35;98.85
72570;BME280;60594;50.204;8.844;2023-08-12T08:19:48;100089.75;;;21.43;97.76
72570;BME280;60594;50.204;8.844;2023-08-12T08:22:15;100078.44;;;21.39;100.00
72570;BME280;60594;50.204;8.844;2023-08-12T08:24:42;100082.75;;;21.55;99.23
72570;BME280;60594;50.204;8.844;2023-08-12T08:27:09;100083.66;;;21.62;100.00
72570;BME280;60594;50.204;8.844;2023-08-12T08:29:36;100075.69;;;21.75;100.00
72570;BME280;60594;50.204;8.844;2023-08-12T08:32:02;100069.69;;;21.86;100.00
72570;BME280;60594;50.204;8.844;2023-08-12T08:34:29;100075.72;;;21.81;100.00
72570;BME280;60594;50.204;8.844;2023-08-12T08:36:56;100089.53;;;21.65;100.00
72570;BME280;60594;50.204;8.844;2023-08-12T08:39:23;100082.13;;;21.53;100.00
72570;BME280;60594;50.204;8.844;2023-08-12T08:41:54;100076.91;;;21.51;100.00
72570;BME280;60594;50.204;8.844;2023-08-12T08:44:22;100076.97;;;21.58;99.57
72570;BME280;60594;50.204;8.844;2023-08-12T08:46:52;100075.88;;;21.73;100.00
72570;BME280;60594;50.204;8.844;2023-08-12T08:49:20;100084.41;;;21.98;99.36
72570;BME280;60594;50.204;8.844;2023-08-12T08:51:48;100089.50;;;22.14;94.11
72570;BME280;60594;50.204;8.844;2023-08-12T08:54:16;100083.91;;;22.22;96.81
72570;BME280;60594;50.204;8.844;2023-08-12T08:56:43;100087.28;;;22.30;94.99
